Time;durP1;ratioP1;P1;durP2;ratioP2;P2;SDS_P1;SDS_P2;PMS_P1;PMS_P2;Temp;Humidity;BMP_temperature;BMP_pressure;BME280_temperature;BME280_humidity;BME280_pressure;Samples;Min_cycle;Max_cycle;Signal;HPM_P1;HPM_P2
2022/09/06 00:00:16;;;;;;;1.20;0.70;;;24.80;57.70;;;;;;5077245;28;20400;-67
2022/09/06 00:02:42;;;;;;;1.05;0.70;;;24.80;57.90;;;;;;5087102;28;20024;-67
2022/09/06 00:05:09;;;;;;;2.40;0.90;;;24.80;58.10;;;;;;5089108;28;20593;-72
2022/09/06 00:07:35;;;;;;;0.80;0.80;;;24.70;58.00;;;;;;5077706;28;20020;-67
2022/09/06 00:10:01;;;;;;;1.55;1.13;;;24.70;58.10;;;;;;5081244;28;20028;-72
2022/09/06 00:12:27;;;;;;;0.70;0.70;;;24.60;58.10;;;;;;5077855;28;20411;-72
2022/09/06 00:14:53;;;;;;;0.88;0.88;;;24.50;58.30;;;;;;5083829;28;20105;-68
2022/09/06 00:17:19;;;;;;;1.55;0.95;;;24.50;58.40;;;;;;5074808;28;20063;-67
2022/09/06 00:19:44;;;;;;;0.70;0.70;;;24.50;58.40;;;;;;5070674;28;20040;-71
2022/09/06 00:22:10;;;;;;;0.88;0.73;;;24.40;58.50;;;;;;5070027;28;20028;-72
2022/09/06 00:24:36;;;;;;;0.88;0.88;;;24.40;58.50;;;;;;5072591;28;20115;-68
2022/09/06 00:27:03;;;;;;;2.17;0.80;;;24.30;58.60;;;;;;5076205;28;20029;-72
2022/09/06 00:29:29;;;;;;;3.05;1.10;;;24.30;58.60;;;;;;5071220;28;20023;-67
2022/09/06 00:31:55;;;;;;;0.65;0.60;;;24.40;58.60;;;;;;5069919;28;20040;-71
2022/09/06 00:34:21;;;;;;;0.80;0.80;;;24.40;58.40;;;;;;5073940;28;20495;-71
2022/09/06 00:36:46;;;;;;;0.88;0.60;;;24.40;58.60;;;;;;5070495;28;20033;-66
2022/09/06 00:39:12;;;;;;;0.70;0.70;;;24.30;58.50;;;;;;5067901;28;20032;-71
2022/09/06 00:41:38;;;;;;;1.05;0.80;;;24.30;58.50;;;;;;5088941;28;20020;-67
2022/09/06 00:44:03;;;;;;;0.60;0.60;;;24.30;58.60;;;;;;5079776;28;20448;-67
2022/09/06 00:46:30;;;;;;;0.70;0.70;;;24.30;58.60;;;;;;5077603;28;20028;-68
2022/09/06 00:49:06;;;;;;;0.60;0.60;;;24.30;58.60;;;;;;5070707;28;20029;-69
2022/09/06 00:51:34;;;;;;;1.20;0.85;;;24.30;58.50;;;;;;5081603;28;20789;-68
2022/09/06 00:54:08;;;;;;;0.70;0.70;;;24.30;58.60;;;;;;5075427;28;20031;-68
2022/09/06 00:56:37;;;;;;;0.70;0.70;;;24.30;58.60;;;;;;5073052;28;20076;-67
2022/09/06 00:59:03;;;;;;;0.70;0.70;;;24.30;58.70;;;;;;5088231;28;20077;-66
2022/09/06 01:01:29;;;;;;;0.50;0.50;;;24.30;58.70;;;;;;5075291;28;20032;-67
2022/09/06 01:03:55;;;;;;;5.00;0.80;;;24.30;58.60;;;;;;5065375;28;20032;-68
2022/09/06 01:06:39;;;;;;;1.90;1.08;;;24.20;58.80;;;;;;5094223;28;20490;-68
2022/09/06 01:09:05;;;;;;;0.65;0.65;;;24.20;59.60;;;;;;5070404;28;20033;-72
2022/09/06 01:11:44;;;;;;;0.90;0.70;;;24.00;60.00;;;;;;5070132;28;20024;-73
2022/09/06 01:14:38;;;;;;;0.75;0.70;;;24.00;60.50;;;;;;5070858;28;20021;-73
2022/09/06 01:17:24;;;;;;;0.70;0.70;;;23.90;61.30;;;;;;5068091;28;20032;-73
2022/09/06 01:20:27;;;;;;;1.50;0.80;;;23.80;62.60;;;;;;5075806;28;20031;-73
2022/09/06 01:23:17;;;;;;;0.60;0.60;;;23.80;62.50;;;;;;5081975;28;20032;-74
2022/09/06 01:26:01;;;;;;;0.70;0.70;;;23.70;63.20;;;;;;5081477;28;20482;-74
2022/09/06 01:28:36;;;;;;;1.02;0.75;;;23.70;63.60;;;;;;5071957;28;20491;-74
2022/09/06 01:31:17;;;;;;;1.38;1.23;;;23.60;64.00;;;;;;5069134;28;20032;-74
2022/09/06 01:33:47;;;;;;;1.27;0.90;;;23.60;64.20;;;;;;5071733;28;20025;-74
2022/09/06 01:36:19;;;;;;;0.80;0.80;;;23.50;64.80;;;;;;5070925;28;20035;-74
2022/09/06 01:38:45;;;;;;;3.72;1.20;;;23.50;64.90;;;;;;5088676;28;20122;-74
2022/09/06 01:41:11;;;;;;;1.10;1.02;;;23.40;65.60;;;;;;5091905;28;20107;-74
2022/09/06 01:43:40;;;;;;;1.77;0.80;;;23.30;65.70;;;;;;5086619;28;20035;-73
2022/09/06 01:46:38;;;;;;;0.80;0.80;;;23.30;66.00;;;;;;5074471;28;20504;-73
2022/09/06 01:49:31;;;;;;;1.02;0.93;;;23.20;66.60;;;;;;5082837;28;20541;-75
2022/09/06 01:52:34;;;;;;;0.52;0.52;;;23.10;67.20;;;;;;5069362;28;20031;-73
2022/09/06 01:55:08;;;;;;;;;;;23.00;67.50;;;;;;5082959;28;20032;-74
2022/09/06 01:57:40;;;;;;;1.50;1.10;;;22.90;67.80;;;;;;5086722;28;20283;-74
2022/09/06 02:00:10;;;;;;;;;;;22.90;68.30;;;;;;5084961;28;20032;-75
2022/09/06 02:02:59;;;;;;;0.73;0.70;;;22.90;68.60;;;;;;5084126;28;19908;-75
2022/09/06 02:05:50;;;;;;;0.90;0.90;;;22.90;68.90;;;;;;5090939;28;20036;-75
2022/09/06 02:08:22;;;;;;;1.17;0.85;;;22.90;68.70;;;;;;5085982;28;20023;-75
2022/09/06 02:11:03;;;;;;;0.70;0.70;;;22.80;68.90;;;;;;5096824;28;20020;-74
2022/09/06 02:13:44;;;;;;;0.95;0.68;;;22.90;69.00;;;;;;5075827;28;20115;-74
2022/09/06 02:16:14;;;;;;;1.73;1.30;;;22.80;69.50;;;;;;5073020;28;20059;-68
2022/09/06 02:18:50;;;;;;;0.80;0.80;;;22.80;70.30;;;;;;5072169;28;20384;-74
2022/09/06 02:21:20;;;;;;;0.70;0.70;;;22.70;70.50;;;;;;5083852;28;20032;-74
2022/09/06 02:23:47;;;;;;;2.35;1.17;;;22.70;70.50;;;;;;5086348;28;20081;-73
2022/09/06 02:26:25;;;;;;;0.60;0.60;;;22.70;70.50;;;;;;5072515;28;20127;-74
2022/09/06 02:28:51;;;;;;;1.10;1.00;;;22.80;70.60;;;;;;5082107;28;20737;-73
2022/09/06 02:31:28;;;;;;;0.70;0.70;;;22.70;70.70;;;;;;5077686;28;20502;-74
2022/09/06 02:33:54;;;;;;;0.75;0.75;;;22.70;70.80;;;;;;5075685;28;20024;-73
2022/09/06 02:36:20;;;;;;;1.20;0.98;;;22.70;71.00;;;;;;5071614;28;20040;-74
2022/09/06 02:38:46;;;;;;;0.80;0.80;;;22.70;71.00;;;;;;5069438;28;20379;-75
2022/09/06 02:41:17;;;;;;;0.60;0.60;;;22.70;70.90;;;;;;5092565;28;20027;-75
2022/09/06 02:43:43;;;;;;;1.13;0.90;;;22.70;71.00;;;;;;5087753;28;20114;-75
2022/09/06 02:46:09;;;;;;;1.80;0.93;;;22.70;71.20;;;;;;5091523;28;20058;-75
2022/09/06 02:48:34;;;;;;;1.00;0.82;;;22.70;71.20;;;;;;5092557;28;20082;-75
2022/09/06 02:51:05;;;;;;;1.23;0.80;;;22.60;71.40;;;;;;5089071;28;20035;-74
2022/09/06 02:53:31;;;;;;;3.20;1.08;;;22.70;71.60;;;;;;5083961;28;20088;-74
2022/09/06 02:55:57;;;;;;;0.90;0.90;;;22.60;71.70;;;;;;5095049;28;20455;-74
2022/09/06 02:58:23;;;;;;;2.03;1.00;;;22.60;71.90;;;;;;5081334;28;20204;-68
2022/09/06 03:00:52;;;;;;;1.90;1.17;;;22.50;72.10;;;;;;5085345;28;20032;-68
2022/09/06 03:03:19;;;;;;;2.42;1.45;;;22.40;72.10;;;;;;5097293;28;20024;-68
2022/09/06 03:05:48;;;;;;;1.10;1.00;;;22.40;72.20;;;;;;5072611;28;20038;-74
2022/09/06 03:08:15;;;;;;;0.80;0.80;;;22.40;72.20;;;;;;5072644;28;20020;-68
2022/09/06 03:10:54;;;;;;;1.52;1.17;;;22.40;72.00;;;;;;5087141;28;20035;-68
2022/09/06 03:13:21;;;;;;;1.58;1.25;;;22.40;72.00;;;;;;5076116;28;20032;-74
2022/09/06 03:15:56;;;;;;;1.55;1.42;;;22.30;72.10;;;;;;5071671;28;20159;-75
2022/09/06 03:18:23;;;;;;;1.30;1.13;;;22.30;72.10;;;;;;5073781;28;20483;-68
2022/09/06 03:20:50;;;;;;;1.27;0.80;;;22.30;72.00;;;;;;5092261;28;20020;-68
2022/09/06 03:23:18;;;;;;;3.10;1.73;;;22.30;71.90;;;;;;5074236;28;20032;-68
2022/09/06 03:25:43;;;;;;;0.70;0.70;;;22.30;71.70;;;;;;5074463;28;20029;-75
2022/09/06 03:28:09;;;;;;;0.80;0.80;;;22.30;71.40;;;;;;5087265;28;20038;-75
2022/09/06 03:30:35;;;;;;;1.63;1.10;;;22.30;71.70;;;;;;5076977;28;20040;-75
2022/09/06 03:33:01;;;;;;;1.67;1.15;;;22.20;72.20;;;;;;5083262;28;20027;-73
2022/09/06 03:35:27;;;;;;;1.33;1.23;;;22.10;72.30;;;;;;5083708;28;20047;-74
2022/09/06 03:37:52;;;;;;;2.17;1.38;;;22.10;72.40;;;;;;5072330;28;20042;-81
2022/09/06 03:40:18;;;;;;;3.53;1.10;;;22.00;72.70;;;;;;5091247;28;20042;-76
2022/09/06 03:42:45;;;;;;;1.15;0.90;;;22.00;72.70;;;;;;5093189;28;20085;-69
2022/09/06 03:45:11;;;;;;;1.65;1.48;;;22.10;72.80;;;;;;5097589;28;20032;-68
2022/09/06 03:47:37;;;;;;;1.15;1.05;;;22.10;72.70;;;;;;5070122;28;20112;-74
2022/09/06 03:50:04;;;;;;;1.67;1.15;;;22.20;72.80;;;;;;5084294;28;20523;-75
2022/09/06 03:52:30;;;;;;;5.53;1.63;;;22.20;72.80;;;;;;5073992;28;20413;-74
2022/09/06 03:54:55;;;;;;;0.90;0.80;;;22.20;73.00;;;;;;5090663;28;20041;-75
2022/09/06 03:57:21;;;;;;;1.73;1.38;;;22.20;73.10;;;;;;5097950;28;20139;-69
2022/09/06 03:59:47;;;;;;;1.70;1.05;;;22.10;73.10;;;;;;5086873;28;20101;-73
2022/09/06 04:02:12;;;;;;;1.65;1.15;;;22.10;73.40;;;;;;5069880;28;20112;-73
2022/09/06 04:04:38;;;;;;;0.80;0.80;;;22.10;73.30;;;;;;5084194;28;20051;-74
2022/09/06 04:07:04;;;;;;;1.90;0.90;;;22.20;73.40;;;;;;5073223;28;20025;-74
2022/09/06 04:09:29;;;;;;;1.08;0.98;;;22.10;73.80;;;;;;5082263;28;20055;-74
2022/09/06 04:11:55;;;;;;;0.95;0.80;;;22.00;73.90;;;;;;5070250;28;20032;-75
2022/09/06 04:14:21;;;;;;;2.28;1.25;;;22.00;74.00;;;;;;5069769;28;20032;-75
2022/09/06 04:16:46;;;;;;;0.90;0.85;;;22.00;73.90;;;;;;5082418;28;20036;-74
2022/09/06 04:19:12;;;;;;;4.05;1.55;;;22.00;73.90;;;;;;5069779;28;20487;-73
2022/09/06 04:21:38;;;;;;;1.70;1.33;;;22.00;73.80;;;;;;5071911;28;20028;-74
2022/09/06 04:24:04;;;;;;;1.08;0.82;;;22.00;73.60;;;;;;5071614;28;20024;-75
2022/09/06 04:26:29;;;;;;;0.80;0.80;;;22.00;73.60;;;;;;5074407;28;20039;-75
2022/09/06 04:28:55;;;;;;;1.00;0.82;;;22.00;73.70;;;;;;5081083;28;20479;-74
2022/09/06 04:31:21;;;;;;;0.90;0.82;;;22.00;73.80;;;;;;5064212;28;20572;-74
2022/09/06 04:33:53;;;;;;;1.85;1.20;;;22.00;73.80;;;;;;5079899;28;20075;-75
2022/09/06 04:36:20;;;;;;;2.63;1.00;;;22.00;74.00;;;;;;5064464;28;20051;-68
2022/09/06 04:38:46;;;;;;;4.85;2.08;;;22.00;74.10;;;;;;5075914;28;20029;-75
2022/09/06 04:41:14;;;;;;;1.55;1.25;;;22.00;74.30;;;;;;5084092;28;20092;-75
2022/09/06 04:43:41;;;;;;;1.40;1.20;;;22.00;74.30;;;;;;5069485;28;20047;-68
2022/09/06 04:46:23;;;;;;;1.40;1.02;;;22.00;74.30;;;;;;5071782;28;20056;-69
2022/09/06 04:48:50;;;;;;;2.10;1.52;;;22.00;74.30;;;;;;5093436;28;20047;-75
2022/09/06 04:51:17;;;;;;;2.00;1.67;;;22.00;74.70;;;;;;5089710;28;20103;-74
2022/09/06 04:53:43;;;;;;;1.42;1.13;;;22.00;74.70;;;;;;5073773;28;20433;-74
2022/09/06 04:56:20;;;;;;;1.92;1.40;;;22.00;74.80;;;;;;5083909;28;20097;-68
2022/09/06 04:58:47;;;;;;;1.20;1.08;;;22.00;74.80;;;;;;5103755;27;20036;-75
2022/09/06 05:01:14;;;;;;;1.58;1.40;;;22.00;74.60;;;;;;5066754;28;20051;-74
2022/09/06 05:03:40;;;;;;;1.20;1.10;;;22.00;75.00;;;;;;5077822;28;20065;-75
2022/09/06 05:06:11;;;;;;;1.40;1.30;;;22.00;74.50;;;;;;5077743;28;20483;-73
2022/09/06 05:08:40;;;;;;;1.58;1.45;;;22.00;74.70;;;;;;5068139;28;20107;-67
2022/09/06 05:11:07;;;;;;;1.80;1.17;;;22.00;74.90;;;;;;5076518;28;20536;-75
2022/09/06 05:13:34;;;;;;;1.70;1.45;;;22.00;75.10;;;;;;5071235;28;20082;-74
2022/09/06 05:16:01;;;;;;;1.70;1.10;;;21.90;75.30;;;;;;5074540;28;20149;-74
2022/09/06 05:18:27;;;;;;;1.42;1.33;;;21.90;75.20;;;;;;5082865;28;20012;-74
2022/09/06 05:20:53;;;;;;;3.38;1.48;;;21.90;75.10;;;;;;5069501;28;20035;-75
2022/09/06 05:23:22;;;;;;;3.25;1.10;;;21.90;75.00;;;;;;5077125;28;20039;-68
2022/09/06 05:25:48;;;;;;;1.23;1.13;;;22.00;74.80;;;;;;5072447;28;20028;-68
2022/09/06 05:28:15;;;;;;;1.55;1.40;;;22.00;74.80;;;;;;5080739;28;20051;-68
2022/09/06 05:30:41;;;;;;;0.73;0.73;;;22.00;75.00;;;;;;5073861;28;20090;-68
2022/09/06 05:33:11;;;;;;;3.30;1.17;;;21.90;75.00;;;;;;5073257;28;20517;-67
2022/09/06 05:35:37;;;;;;;1.35;1.08;;;22.00;75.00;;;;;;5061734;28;20037;-67
2022/09/06 05:38:03;;;;;;;1.48;1.20;;;21.90;75.10;;;;;;5071918;28;20028;-69
2022/09/06 05:40:29;;;;;;;2.22;1.00;;;21.90;75.30;;;;;;5081665;28;20040;-68
2022/09/06 05:42:54;;;;;;;4.07;1.20;;;21.90;75.20;;;;;;5073176;28;20507;-68
2022/09/06 05:45:20;;;;;;;2.20;1.55;;;21.90;75.10;;;;;;5093403;28;20100;-74
2022/09/06 05:47:46;;;;;;;1.40;1.30;;;22.00;75.10;;;;;;5088490;28;20027;-75
2022/09/06 05:50:12;;;;;;;3.28;1.65;;;22.00;74.90;;;;;;5076336;28;20043;-74
2022/09/06 05:52:38;;;;;;;1.23;1.13;;;22.00;74.80;;;;;;5082882;28;20383;-75
2022/09/06 05:55:05;;;;;;;1.13;1.05;;;22.10;74.80;;;;;;5084006;28;20040;-74
2022/09/06 05:57:31;;;;;;;1.75;1.25;;;22.10;74.80;;;;;;5095904;28;20051;-75
2022/09/06 05:59:56;;;;;;;1.17;1.10;;;22.10;74.90;;;;;;5099278;28;20105;-74
2022/09/06 06:02:22;;;;;;;1.30;1.20;;;22.10;75.00;;;;;;5077701;28;20435;-74
2022/09/06 06:04:49;;;;;;;1.85;1.55;;;22.10;75.10;;;;;;5082951;28;20467;-74
2022/09/06 06:07:14;;;;;;;2.28;1.42;;;22.10;75.30;;;;;;5107593;28;20020;-75
2022/09/06 06:09:41;;;;;;;0.95;0.73;;;22.20;75.50;;;;;;5092567;28;20559;-75
2022/09/06 06:12:07;;;;;;;1.30;1.13;;;22.20;75.60;;;;;;5087571;28;20363;-75
2022/09/06 06:14:33;;;;;;;1.42;1.33;;;22.10;75.60;;;;;;5083460;28;20028;-74
2022/09/06 06:16:59;;;;;;;1.48;1.08;;;22.10;75.70;;;;;;5077096;28;20102;-75
2022/09/06 06:19:25;;;;;;;2.17;1.80;;;22.10;75.70;;;;;;5086397;28;20118;-75
2022/09/06 06:21:51;;;;;;;1.17;1.08;;;22.20;75.70;;;;;;5084821;28;20021;-68
2022/09/06 06:24:17;;;;;;;1.92;1.42;;;22.20;76.00;;;;;;5082473;28;20037;-68
2022/09/06 06:26:43;;;;;;;2.08;1.52;;;22.20;76.00;;;;;;5080231;28;20101;-67
2022/09/06 06:29:08;;;;;;;1.90;1.55;;;22.20;76.20;;;;;;5082245;28;20453;-67
2022/09/06 06:31:36;;;;;;;3.13;2.08;;;22.20;76.10;;;;;;5074470;28;20068;-68
2022/09/06 06:34:02;;;;;;;1.85;1.30;;;22.20;76.10;;;;;;5087453;28;20552;-68
2022/09/06 06:36:33;;;;;;;4.53;1.75;;;22.20;76.00;;;;;;5082727;28;20136;-67
2022/09/06 06:39:00;;;;;;;1.77;1.45;;;22.20;75.60;;;;;;5084102;28;20510;-67
2022/09/06 06:41:29;;;;;;;4.20;1.83;;;22.30;75.30;;;;;;5090843;28;20028;-68
2022/09/06 06:44:00;;;;;;;1.48;1.38;;;22.40;75.00;;;;;;5083892;28;20166;-68
2022/09/06 06:46:28;;;;;;;2.17;1.98;;;22.40;74.60;;;;;;5080502;28;20020;-68
2022/09/06 06:48:54;;;;;;;2.28;1.48;;;22.40;74.50;;;;;;5091467;28;20398;-69
2022/09/06 06:51:21;;;;;;;2.20;1.67;;;22.40;74.40;;;;;;5087566;28;20028;-68
2022/09/06 06:53:47;;;;;;;2.92;1.50;;;22.50;74.30;;;;;;5088469;28;20051;-68
2022/09/06 06:56:25;;;;;;;2.67;2.05;;;22.50;74.30;;;;;;5084434;28;20032;-68
2022/09/06 06:58:54;;;;;;;2.55;1.52;;;22.60;74.30;;;;;;5079128;28;20089;-68
2022/09/06 07:01:21;;;;;;;3.17;2.15;;;22.60;74.10;;;;;;5080895;28;20035;-68
2022/09/06 07:03:47;;;;;;;1.30;1.20;;;22.60;73.20;;;;;;5089829;28;20504;-67
2022/09/06 07:06:13;;;;;;;1.88;1.60;;;22.60;73.20;;;;;;5090484;28;20055;-68
2022/09/06 07:08:39;;;;;;;2.28;1.70;;;22.60;73.40;;;;;;5085093;28;20033;-67
2022/09/06 07:11:06;;;;;;;2.55;1.73;;;22.70;73.90;;;;;;5081838;28;20030;-68
2022/09/06 07:13:33;;;;;;;1.52;1.25;;;22.70;73.80;;;;;;5089828;28;20032;-68
2022/09/06 07:16:18;;;;;;;1.50;1.20;;;22.80;73.60;;;;;;5083847;28;20031;-75
2022/09/06 07:18:44;;;;;;;2.60;1.60;;;22.90;73.30;;;;;;5082013;28;20102;-74
2022/09/06 07:21:15;;;;;;;2.65;1.75;;;22.80;72.40;;;;;;5073262;28;20021;-74
2022/09/06 07:23:42;;;;;;;1.98;1.80;;;22.80;72.10;;;;;;5072208;28;20373;-74
2022/09/06 07:26:12;;;;;;;2.10;1.25;;;22.90;72.20;;;;;;5076860;28;20174;-75
2022/09/06 07:28:38;;;;;;;1.60;1.40;;;22.90;72.10;;;;;;5096718;28;20016;-75
2022/09/06 07:31:04;;;;;;;1.30;1.20;;;23.00;71.80;;;;;;5075009;28;20063;-74
2022/09/06 07:33:29;;;;;;;9.15;1.50;;;23.00;71.60;;;;;;5072915;28;20155;-74
2022/09/06 07:35:57;;;;;;;1.40;1.30;;;23.10;71.50;;;;;;5078474;28;20497;-74
2022/09/06 07:38:23;;;;;;;1.48;1.38;;;23.10;70.90;;;;;;5083516;28;20484;-75
2022/09/06 07:40:57;;;;;;;1.25;1.15;;;23.20;70.80;;;;;;5072695;28;20035;-74
2022/09/06 07:43:24;;;;;;;2.22;1.50;;;23.20;70.50;;;;;;5081278;28;20025;-68
2022/09/06 07:46:07;;;;;;;1.73;1.33;;;23.30;70.40;;;;;;5070718;28;20096;-68
2022/09/06 07:48:35;;;;;;;2.17;1.50;;;23.40;70.40;;;;;;5074365;28;20109;-67
2022/09/06 07:51:05;;;;;;;1.40;1.30;;;23.50;70.40;;;;;;5074677;28;20475;-67
2022/09/06 07:53:30;;;;;;;1.08;0.90;;;23.50;70.00;;;;;;5095885;28;20082;-68
2022/09/06 07:55:57;;;;;;;1.13;0.90;;;23.50;70.00;;;;;;5082458;28;20024;-68
2022/09/06 07:58:23;;;;;;;1.02;1.00;;;23.50;69.70;;;;;;5085127;28;20060;-68
2022/09/06 08:00:48;;;;;;;1.48;1.38;;;23.50;70.40;;;;;;5078747;28;20492;-67
2022/09/06 08:03:14;;;;;;;3.33;1.60;;;23.50;69.60;;;;;;5076214;28;20027;-67
2022/09/06 08:05:40;;;;;;;1.33;1.08;;;23.60;69.50;;;;;;5066538;28;20082;-74
2022/09/06 08:08:06;;;;;;;3.47;1.60;;;23.60;69.10;;;;;;5081049;28;20107;-74
2022/09/06 08:10:31;;;;;;;3.55;1.58;;;23.60;69.10;;;;;;5075680;28;20024;-74
2022/09/06 08:12:57;;;;;;;1.58;1.48;;;23.70;68.80;;;;;;5095491;28;20445;-74
2022/09/06 08:15:23;;;;;;;1.58;1.45;;;23.80;68.40;;;;;;5084553;28;20068;-73
2022/09/06 08:17:49;;;;;;;1.33;1.23;;;23.80;68.30;;;;;;5085208;28;20119;-67
2022/09/06 08:20:16;;;;;;;1.45;1.13;;;23.80;67.90;;;;;;5080138;28;20136;-74
2022/09/06 08:22:41;;;;;;;1.70;1.45;;;23.90;67.80;;;;;;5082760;28;20107;-73
2022/09/06 08:25:07;;;;;;;3.92;2.17;;;24.00;67.10;;;;;;5079326;28;20104;-74
2022/09/06 08:27:33;;;;;;;1.38;1.15;;;24.00;66.50;;;;;;5073581;28;20062;-73
2022/09/06 08:29:59;;;;;;;1.67;1.17;;;24.00;66.60;;;;;;5115436;27;20570;-67
2022/09/06 08:32:25;;;;;;;1.00;0.98;;;24.10;66.40;;;;;;5084554;28;20052;-67
2022/09/06 08:34:51;;;;;;;1.45;1.35;;;24.20;66.40;;;;;;5080861;28;20034;-66
2022/09/06 08:37:16;;;;;;;1.02;0.90;;;24.30;65.80;;;;;;5086315;28;20459;-67
2022/09/06 08:39:42;;;;;;;1.13;0.95;;;24.40;65.70;;;;;;5082857;28;20020;-67
2022/09/06 08:42:09;;;;;;;3.22;1.27;;;24.60;65.50;;;;;;5064356;28;20032;-67
2022/09/06 08:44:46;;;;;;;1.73;1.42;;;24.70;65.30;;;;;;5074088;28;20024;-73
2022/09/06 08:47:18;;;;;;;1.80;1.23;;;24.80;65.00;;;;;;5082107;28;20427;-73
2022/09/06 08:49:51;;;;;;;1.57;1.33;;;24.80;65.00;;;;;;5086985;28;20111;-73
2022/09/06 08:52:31;;;;;;;2.10;1.40;;;24.80;64.90;;;;;;5083585;28;20290;-67
2022/09/06 08:55:12;;;;;;;1.63;0.88;;;24.90;64.70;;;;;;5075201;28;20056;-67
2022/09/06 08:57:57;;;;;;;1.55;1.45;;;25.10;64.20;;;;;;5103668;28;20553;-73
2022/09/06 09:00:26;;;;;;;1.92;1.30;;;25.10;63.40;;;;;;5087522;28;20102;-68
2022/09/06 09:03:17;;;;;;;3.00;1.08;;;25.20;62.70;;;;;;5079768;28;20124;-67
2022/09/06 09:05:45;;;;;;;1.48;1.23;;;25.20;62.80;;;;;;5075728;28;20020;-72
2022/09/06 09:08:26;;;;;;;2.25;1.60;;;25.30;62.60;;;;;;5084011;28;20110;-73
2022/09/06 09:11:04;;;;;;;1.10;0.82;;;25.40;62.40;;;;;;5074751;28;20495;-73
2022/09/06 09:13:37;;;;;;;1.08;0.80;;;25.50;62.20;;;;;;5097821;28;20031;-73
2022/09/06 09:16:04;;;;;;;1.13;1.02;;;25.60;61.90;;;;;;5092306;28;20023;-67
2022/09/06 09:18:37;;;;;;;1.48;1.02;;;25.70;61.80;;;;;;5082956;28;20070;-73
2022/09/06 09:21:03;;;;;;;2.22;1.25;;;25.90;61.60;;;;;;5080744;28;20077;-74
2022/09/06 09:23:29;;;;;;;1.38;1.20;;;26.00;61.20;;;;;;5084272;28;20036;-73
2022/09/06 09:26:01;;;;;;;0.88;0.88;;;26.10;61.00;;;;;;5073908;28;20048;-73
2022/09/06 09:28:27;;;;;;;2.13;1.42;;;26.30;60.70;;;;;;5086473;28;20329;-73
2022/09/06 09:30:55;;;;;;;1.85;1.48;;;26.40;60.60;;;;;;5089790;28;20051;-68
2022/09/06 09:33:22;;;;;;;0.98;0.88;;;26.60;60.10;;;;;;5092347;28;20039;-67
2022/09/06 09:35:48;;;;;;;1.13;0.98;;;26.70;59.90;;;;;;5079455;28;20484;-73
2022/09/06 09:38:21;;;;;;;1.63;1.23;;;26.80;59.10;;;;;;5070808;28;20040;-73
2022/09/06 09:41:00;;;;;;;1.42;1.30;;;26.80;58.80;;;;;;5101504;28;20032;-73
2022/09/06 09:43:49;;;;;;;1.30;1.20;;;26.90;58.20;;;;;;5078837;28;20483;-73
2022/09/06 09:46:24;;;;;;;1.70;1.30;;;27.00;58.00;;;;;;5067640;28;20052;-73
2022/09/06 09:49:09;;;;;;;1.35;1.15;;;27.10;57.90;;;;;;5082108;28;20046;-73
2022/09/06 09:52:02;;;;;;;1.17;1.05;;;27.20;58.00;;;;;;5096420;28;20463;-73
2022/09/06 09:54:35;;;;;;;0.93;0.70;;;27.30;57.70;;;;;;5090383;28;20503;-73
2022/09/06 09:57:00;;;;;;;0.82;0.82;;;27.50;57.50;;;;;;5083675;28;20051;-72
2022/09/06 09:59:51;;;;;;;4.10;2.60;;;27.60;56.60;;;;;;5090559;28;20118;-73
2022/09/06 10:02:37;;;;;;;10.60;2.45;;;27.70;56.30;;;;;;5074856;28;20032;-73
2022/09/06 10:05:12;;;;;;;1.35;0.95;;;27.90;56.10;;;;;;5088535;28;20054;-73
2022/09/06 10:07:52;;;;;;;0.85;0.85;;;28.00;55.70;;;;;;5083222;28;20056;-73
2022/09/06 10:10:26;;;;;;;1.30;1.20;;;28.10;55.30;;;;;;5070667;28;20039;-73
2022/09/06 10:13:15;;;;;;;1.02;0.93;;;28.30;55.30;;;;;;5081269;28;20032;-73
2022/09/06 10:15:42;;;;;;;1.83;1.10;;;28.40;53.00;;;;;;5067314;28;20033;-67
2022/09/06 10:18:33;;;;;;;1.80;0.80;;;28.40;52.80;;;;;;5081056;28;20016;-73
2022/09/06 10:21:04;;;;;;;2.30;1.23;;;28.50;53.40;;;;;;5082376;28;20038;-73
2022/09/06 10:24:00;;;;;;;0.80;0.80;;;28.60;52.70;;;;;;5080098;28;20028;-68
2022/09/06 10:26:41;;;;;;;1.88;1.33;;;28.70;52.00;;;;;;5081743;28;20024;-73
2022/09/06 10:29:10;;;;;;;1.13;1.03;;;28.70;49.90;;;;;;5086085;28;20032;-72
2022/09/06 10:31:40;;;;;;;1.35;1.00;;;28.80;50.00;;;;;;5084158;28;20285;-73
2022/09/06 10:34:24;;;;;;;0.88;0.88;;;28.80;49.60;;;;;;5081256;28;20107;-73
2022/09/06 10:37:15;;;;;;;0.80;0.80;;;28.90;49.10;;;;;;5077102;28;20044;-68
2022/09/06 10:40:05;;;;;;;1.50;0.80;;;29.00;49.10;;;;;;5096281;28;20467;-67
2022/09/06 10:42:45;;;;;;;1.55;1.13;;;29.20;49.30;;;;;;5083422;28;20534;-67
2022/09/06 10:45:13;;;;;;;0.82;0.82;;;29.40;48.60;;;;;;5089553;28;21199;-71
2022/09/06 10:48:03;;;;;;;2.05;1.00;;;29.50;49.10;;;;;;5092028;28;20032;-69
2022/09/06 10:50:56;;;;;;;0.77;0.77;;;29.60;48.60;;;;;;5095117;28;20364;-69
2022/09/06 10:53:33;;;;;;;0.70;0.70;;;29.60;48.60;;;;;;5084267;28;20017;-73
2022/09/06 10:56:37;;;;;;;0.52;0.52;;;29.60;48.80;;;;;;5070699;28;20085;-68
2022/09/06 10:59:50;;;;;;;0.90;0.82;;;29.70;48.90;;;;;;5062443;28;20486;-70
2022/09/06 11:02:21;;;;;;;1.33;1.23;;;29.90;48.60;;;;;;5019469;28;20038;-69
2022/09/06 11:04:49;;;;;;;0.68;0.68;;;30.00;48.30;;;;;;5091896;28;20032;-69
2022/09/06 11:07:28;;;;;;;0.85;0.85;;;30.10;48.20;;;;;;5091167;28;20516;-69
2022/09/06 11:10:20;;;;;;;1.88;0.65;;;30.20;48.10;;;;;;5090429;28;20024;-69
2022/09/06 11:13:08;;;;;;;0.73;0.65;;;30.30;47.80;;;;;;5074274;28;20020;-74
2022/09/06 11:16:01;;;;;;;0.65;0.65;;;30.40;47.00;;;;;;5078940;28;20059;-70
2022/09/06 11:18:54;;;;;;;3.05;0.80;;;30.50;47.10;;;;;;5075063;28;20025;-74
2022/09/06 11:21:45;;;;;;;1.27;1.00;;;30.60;46.50;;;;;;5092191;28;20124;-74
2022/09/06 11:24:49;;;;;;;0.82;0.82;;;30.60;46.80;;;;;;5079882;28;20088;-74
2022/09/06 11:27:33;;;;;;;1.15;0.98;;;30.90;46.40;;;;;;5087389;28;20032;-74
2022/09/06 11:30:00;;;;;;;0.75;0.75;;;31.00;45.50;;;;;;5081192;28;20024;-74
2022/09/06 11:32:43;;;;;;;1.05;1.05;;;31.00;45.60;;;;;;5074652;28;20040;-69
2022/09/06 11:35:21;;;;;;;1.25;1.15;;;31.10;45.30;;;;;;5074434;28;20050;-69
2022/09/06 11:37:56;;;;;;;0.63;0.63;;;31.20;44.80;;;;;;5072221;28;20028;-69
2022/09/06 11:40:26;;;;;;;0.82;0.82;;;31.30;45.20;;;;;;5090401;28;20032;-69
2022/09/06 11:42:51;;;;;;;1.20;1.10;;;31.30;44.90;;;;;;5090480;28;20012;-69
2022/09/06 11:45:39;;;;;;;1.27;1.17;;;31.50;44.40;;;;;;5079119;28;20495;-74
2022/09/06 11:48:23;;;;;;;1.00;1.00;;;31.50;44.20;;;;;;5091463;28;20095;-74
2022/09/06 11:50:57;;;;;;;0.68;0.68;;;31.40;43.20;;;;;;5091788;28;20465;-74
2022/09/06 11:53:49;;;;;;;1.85;0.90;;;31.30;43.90;;;;;;5091496;28;20028;-74
2022/09/06 11:56:32;;;;;;;0.85;0.80;;;31.40;43.60;;;;;;5061204;28;20046;-74
2022/09/06 11:59:16;;;;;;;1.38;1.00;;;31.50;43.80;;;;;;5077776;28;20102;-74
2022/09/06 12:01:58;;;;;;;0.85;0.77;;;31.70;44.10;;;;;;5091335;28;20077;-74
2022/09/06 12:04:43;;;;;;;;;;;31.90;43.60;;;;;;5091795;28;20059;-75
2022/09/06 12:07:11;;;;;;;0.60;0.60;;;32.00;43.50;;;;;;5090668;28;20529;-71
2022/09/06 12:09:41;;;;;;;0.95;0.88;;;32.10;43.40;;;;;;5091464;28;20467;-70
2022/09/06 12:12:08;;;;;;;1.45;1.00;;;32.10;43.00;;;;;;5090631;28;20486;-74
2022/09/06 12:14:41;;;;;;;0.85;0.80;;;32.10;43.30;;;;;;5089957;28;20127;-74
2022/09/06 12:17:07;;;;;;;0.60;0.60;;;32.00;43.50;;;;;;5089487;28;20054;-74
2022/09/06 12:19:44;;;;;;;0.77;0.77;;;32.20;43.70;;;;;;5089886;28;20024;-70
2022/09/06 12:22:28;;;;;;;0.80;0.80;;;32.30;43.60;;;;;;5089224;28;20387;-74
2022/09/06 12:25:09;;;;;;;0.73;0.70;;;32.30;43.20;;;;;;5091198;28;20062;-70
2022/09/06 12:27:49;;;;;;;0.93;0.90;;;32.30;43.30;;;;;;5085484;28;20107;-74
2022/09/06 12:30:30;;;;;;;0.83;0.83;;;32.10;43.50;;;;;;5084659;28;20035;-70
2022/09/06 12:32:57;;;;;;;0.88;0.70;;;32.20;44.10;;;;;;5091174;28;20030;-74
2022/09/06 12:35:29;;;;;;;0.88;0.88;;;32.50;43.00;;;;;;5089493;28;20055;-74
2022/09/06 12:38:01;;;;;;;0.80;0.80;;;32.60;42.30;;;;;;5074654;28;20155;-70
2022/09/06 12:40:31;;;;;;;3.20;0.95;;;32.40;42.30;;;;;;5090524;28;20055;-70
2022/09/06 12:42:57;;;;;;;1.20;1.10;;;32.40;42.80;;;;;;5076763;28;20033;-74
2022/09/06 12:45:24;;;;;;;1.67;1.00;;;32.60;42.70;;;;;;5090778;28;20020;-70
2022/09/06 12:48:03;;;;;;;0.90;0.90;;;32.70;42.60;;;;;;5076104;28;20483;-70
2022/09/06 12:50:30;;;;;;;0.75;0.70;;;32.80;42.60;;;;;;5090676;28;20479;-70
2022/09/06 12:52:58;;;;;;;0.85;0.70;;;32.80;42.80;;;;;;5089193;28;20566;-70
2022/09/06 12:55:26;;;;;;;0.80;0.80;;;32.90;42.60;;;;;;5090242;28;20032;-74
2022/09/06 12:57:58;;;;;;;0.80;0.80;;;32.90;42.50;;;;;;5089203;28;20052;-70
2022/09/06 13:00:30;;;;;;;0.77;0.77;;;32.90;42.40;;;;;;5088891;28;20458;-74
2022/09/06 13:03:07;;;;;;;0.75;0.75;;;33.00;42.60;;;;;;5089908;28;20031;-74
2022/09/06 13:05:36;;;;;;;1.05;1.02;;;33.00;42.60;;;;;;5076427;28;20560;-74
2022/09/06 13:08:03;;;;;;;0.80;0.80;;;33.00;43.30;;;;;;5090048;28;20454;-75
2022/09/06 13:10:39;;;;;;;0.95;0.82;;;33.10;42.60;;;;;;5089586;28;20506;-75